Time;durP1;ratioP1;P1;durP2;ratioP2;P2;SDS_P1;SDS_P2;PMS_P1;PMS_P2;Temp;Humidity;BMP_temperature;BMP_pressure;BME280_temperature;BME280_humidity;BME280_pressure;Samples;Min_cycle;Max_cycle;Signal;HPM_P1;HPM_P2
2021/12/08 00:01:59;;;;;;;5.30;2.00;;;;;;;3.61;73.51;98863.59;4953269;28;20058;-52
2021/12/08 00:04:31;;;;;;;5.95;2.05;;;;;;;3.76;73.38;98878.63;4956702;28;20039;-52
2021/12/08 00:07:12;;;;;;;3.33;1.90;;;;;;;3.78;72.44;98877.59;4955577;28;20043;-53
2021/12/08 00:09:49;;;;;;;3.42;1.80;;;;;;;3.77;72.31;98872.47;4956034;28;20045;-54
2021/12/08 00:15:10;;;;;;;5.80;1.73;;;;;;;3.83;72.03;98864.31;4948398;28;20135;-52
2021/12/08 00:17:38;;;;;;;4.18;1.85;;;;;;;3.84;72.32;98855.56;4956086;28;20059;-53
2021/12/08 00:20:10;;;;;;;5.95;2.08;;;;;;;3.83;72.59;98859.94;4954851;28;20047;-52
2021/12/08 00:22:43;;;;;;;4.32;1.88;;;;;;;3.79;72.17;98845.28;4955807;28;20071;-53
2021/12/08 00:25:40;;;;;;;5.35;1.65;;;;;;;3.88;72.12;98841.41;4950697;28;20072;-52
2021/12/08 00:28:08;;;;;;;5.85;2.20;;;;;;;3.89;71.76;98853.59;4940793;28;20424;-53
2021/12/08 00:30:45;;;;;;;4.13;1.70;;;;;;;3.91;71.16;98849.16;4955646;28;20050;-52
2021/12/08 00:33:12;;;;;;;4.85;1.80;;;;;;;3.92;72.07;98844.75;4954568;28;20464;-52
2021/12/08 00:35:45;;;;;;;4.78;1.75;;;;;;;3.79;72.14;98800.78;4947974;28;20046;-54
2021/12/08 00:38:12;;;;;;;6.30;1.65;;;;;;;3.82;72.39;98802.41;4952306;28;20047;-53
2021/12/08 00:40:39;;;;;;;4.40;1.95;;;;;;;3.79;73.81;98797.28;4935955;28;20099;-53
2021/12/08 00:43:19;;;;;;;4.30;1.80;;;;;;;3.75;73.64;98795.75;4933988;28;20532;-54
2021/12/08 00:45:47;;;;;;;6.28;1.88;;;;;;;3.70;74.24;98795.09;4931743;28;20047;-53
2021/12/08 00:48:14;;;;;;;5.43;1.60;;;;;;;3.66;75.29;98796.16;4933349;28;21079;-53
2021/12/08 00:50:41;;;;;;;5.20;1.83;;;;;;;3.64;76.42;98803.22;4928962;28;20055;-52
2021/12/08 00:53:16;;;;;;;3.55;1.50;;;;;;;3.60;75.82;98812.16;4940218;28;20055;-52
2021/12/08 00:56:12;;;;;;;3.80;1.80;;;;;;;3.56;76.97;98829.75;4936806;28;20061;-53
2021/12/08 00:58:43;;;;;;;4.72;1.50;;;;;;;3.53;77.42;98832.50;4939492;28;20069;-54
2021/12/08 01:01:30;;;;;;;4.07;1.58;;;;;;;3.48;77.87;98832.69;4938247;28;20059;-54
2021/12/08 01:03:57;;;;;;;5.47;1.70;;;;;;;3.47;78.34;98840.59;4936370;28;20051;-53
2021/12/08 01:06:24;;;;;;;2.92;1.50;;;;;;;3.34;78.68;98824.56;4932791;28;20568;-52
2021/12/08 01:08:57;;;;;;;5.57;1.75;;;;;;;3.39;79.11;98851.41;4938181;28;20047;-52
2021/12/08 01:11:36;;;;;;;4.07;2.03;;;;;;;3.38;79.63;98851.47;4939801;28;20058;-53
2021/12/08 01:14:02;;;;;;;3.65;1.42;;;;;;;3.36;79.40;98858.53;4937611;28;20054;-53
2021/12/08 01:16:36;;;;;;;7.35;1.90;;;;;;;3.31;79.94;98856.09;4934031;28;20043;-53
2021/12/08 01:19:04;;;;;;;3.05;1.35;;;;;;;3.35;79.29;98862.91;4936289;28;20062;-52
2021/12/08 01:21:31;;;;;;;2.63;1.30;;;;;;;3.35;79.27;98869.91;4936805;28;20051;-55
2021/12/08 01:24:04;;;;;;;2.50;1.30;;;;;;;3.36;79.79;98890.78;4935165;28;20047;-54
2021/12/08 01:26:38;;;;;;;5.75;1.52;;;;;;;3.34;79.99;98891.75;4936978;28;20417;-52
2021/12/08 01:29:07;;;;;;;4.93;1.60;;;;;;;3.28;80.09;98898.09;4937981;28;20055;-53
2021/12/08 01:31:40;;;;;;;2.97;1.67;;;;;;;3.22;81.24;98900.09;4940739;28;20051;-53
2021/12/08 01:34:11;;;;;;;3.78;1.52;;;;;;;3.18;81.04;98904.59;4937152;28;20047;-53
2021/12/08 01:36:39;;;;;;;2.38;1.40;;;;;;;3.13;82.24;98904.81;4933094;28;20051;-53
2021/12/08 01:39:07;;;;;;;2.72;1.35;;;;;;;3.04;83.81;98904.31;4936938;28;20063;-52
2021/12/08 01:41:39;;;;;;;5.28;1.95;;;;;;;2.88;89.53;98901.47;4936720;28;20054;-52
2021/12/08 01:47:09;;;;;;;4.03;1.75;;;;;;;2.60;91.42;98908.69;4915340;28;20515;-51
2021/12/08 01:49:41;;;;;;;5.05;1.88;;;;;;;2.50;90.45;98900.34;4937873;28;20091;-52
2021/12/08 01:52:09;;;;;;;3.95;1.77;;;;;;;2.43;95.80;98902.34;4936497;28;20062;-53
2021/12/08 01:54:35;;;;;;;4.95;1.70;;;;;;;2.36;97.06;98903.47;4945708;28;20146;-52
2021/12/08 01:57:09;;;;;;;5.10;2.20;;;;;;;2.27;98.87;98898.59;4934499;28;20057;-53
2021/12/08 01:59:41;;;;;;;5.15;2.03;;;;;;;2.23;100.00;98886.53;4940645;28;20409;-52
2021/12/08 02:02:10;;;;;;;4.72;1.92;;;;;;;2.12;99.86;98878.25;4916648;28;20378;-51
2021/12/08 02:04:42;;;;;;;5.32;1.95;;;;;;;2.15;99.88;98880.78;4936530;28;20056;-52
2021/12/08 02:07:09;;;;;;;4.75;1.77;;;;;;;2.20;100.00;98893.66;4934361;28;20957;-52
2021/12/08 02:09:42;;;;;;;5.85;1.90;;;;;;;2.18;100.00;98891.13;4939925;28;20047;-53
2021/12/08 02:12:11;;;;;;;6.97;2.05;;;;;;;2.17;100.00;98885.94;4942017;28;20058;-53
2021/12/08 02:14:39;;;;;;;4.13;2.10;;;;;;;2.12;100.00;98883.50;4935458;28;20074;-55
2021/12/08 02:17:10;;;;;;;3.25;1.50;;;;;;;2.10;100.00;98880.94;4935851;28;20074;-53
2021/12/08 02:19:42;;;;;;;4.43;2.00;;;;;;;2.09;100.00;98873.16;4942161;28;20057;-51
2021/12/08 02:22:08;;;;;;;5.60;1.90;;;;;;;2.07;100.00;98860.16;4944302;28;20055;-51
2021/12/08 02:24:35;;;;;;;5.30;1.80;;;;;;;2.08;100.00;98858.38;4938943;28;20054;-51
2021/12/08 02:27:05;;;;;;;2.63;1.85;;;;;;;2.04;100.00;98849.00;4933740;28;20055;-51
2021/12/08 02:30:22;;;;;;;2.80;1.90;;;;;;;2.04;100.00;98849.00;4936634;28;20054;-52
2021/12/08 02:47:31;;;;;;;5.05;2.67;;;;;;;1.97;100.00;98844.91;4931132;28;20051;-53
2021/12/08 02:50:03;;;;;;;4.25;2.38;;;;;;;1.91;100.00;98852.94;4938276;28;20873;-54
2021/12/08 02:52:33;;;;;;;5.60;2.17;;;;;;;1.92;100.00;98844.19;4938476;28;20043;-53
2021/12/08 02:55:07;;;;;;;7.90;2.58;;;;;;;1.91;100.00;98826.84;4932163;28;20061;-54
2021/12/08 02:57:48;;;;;;;6.25;2.58;;;;;;;1.95;100.00;98818.84;4934297;28;20054;-51
2021/12/08 03:00:19;;;;;;;4.63;2.03;;;;;;;1.97;100.00;98810.97;4932934;28;20520;-52
2021/12/08 03:02:56;;;;;;;6.28;2.13;;;;;;;1.98;100.00;98815.28;4933595;28;20394;-54
2021/12/08 03:05:23;;;;;;;3.95;2.90;;;;;;;1.99;100.00;98804.78;4934396;28;20050;-52
2021/12/08 03:07:57;;;;;;;7.38;2.42;;;;;;;2.03;100.00;98795.94;4936910;28;20051;-53
2021/12/08 03:10:27;;;;;;;5.30;2.40;;;;;;;2.05;100.00;98798.44;4933842;28;20054;-52
2021/12/08 03:12:54;;;;;;;5.45;2.35;;;;;;;1.97;100.00;98777.88;4936822;28;20057;-54
2021/12/08 03:15:20;;;;;;;5.53;2.25;;;;;;;2.05;100.00;98803.66;4934717;28;20099;-52
2021/12/08 03:17:50;;;;;;;4.80;2.60;;;;;;;2.04;100.00;98802.00;4937353;28;20446;-53
2021/12/08 03:23:31;;;;;;;3.88;2.33;;;;;;;2.11;100.00;98798.22;4938075;28;20113;-52
2021/12/08 03:26:00;;;;;;;4.50;2.53;;;;;;;2.11;100.00;98803.44;4930056;28;20058;-52
2021/12/08 03:28:35;;;;;;;7.80;3.35;;;;;;;2.14;100.00;98792.91;4935551;28;20047;-52
2021/12/08 03:31:11;;;;;;;7.35;2.50;;;;;;;2.14;100.00;98803.34;4942955;28;20047;-52
2021/12/08 03:33:44;;;;;;;4.88;2.55;;;;;;;2.16;100.00;98805.91;4942779;28;20051;-53
2021/12/08 03:36:17;;;;;;;4.43;2.63;;;;;;;2.17;100.00;98805.84;4937092;28;20074;-52
2021/12/08 03:38:47;;;;;;;5.43;2.58;;;;;;;2.20;100.00;98813.56;4941451;28;20047;-52
2021/12/08 03:41:19;;;;;;;5.18;2.72;;;;;;;2.23;100.00;98808.19;4958760;28;20129;-51
2021/12/08 03:43:54;;;;;;;6.45;2.58;;;;;;;2.26;100.00;98796.78;4962571;28;20073;-52
2021/12/08 03:46:27;;;;;;;5.28;2.58;;;;;;;2.31;100.00;98808.78;4956484;28;20042;-53
2021/12/08 03:49:06;;;;;;;7.20;2.40;;;;;;;2.32;100.00;98794.81;4943805;28;20043;-53
2021/12/08 03:51:41;;;;;;;4.88;2.75;;;;;;;2.35;100.00;98796.44;4960273;28;20051;-51
2021/12/08 03:54:18;;;;;;;4.65;2.85;;;;;;;2.27;100.00;98788.91;4960463;28;20056;-53
2021/12/08 03:56:45;;;;;;;3.05;2.20;;;;;;;2.35;100.00;98796.44;4952413;28;20047;-52
2021/12/08 03:59:14;;;;;;;5.57;2.30;;;;;;;2.35;100.00;98805.13;4952818;28;20054;-52
2021/12/08 04:01:41;;;;;;;4.68;2.60;;;;;;;2.37;100.00;98813.72;4960061;28;20061;-52
2021/12/08 04:04:10;;;;;;;4.45;2.58;;;;;;;2.39;100.00;98811.91;4956965;28;20050;-51
2021/12/08 04:06:52;;;;;;;3.28;2.47;;;;;;;2.39;100.00;98811.06;4959711;28;20054;-51
2021/12/08 04:09:47;;;;;;;6.13;2.65;;;;;;;2.41;100.00;98812.72;4960047;28;20288;-51
2021/12/08 04:12:19;;;;;;;5.47;2.80;;;;;;;2.40;100.00;98815.38;4963425;28;20047;-53
2021/12/08 04:15:17;;;;;;;5.28;2.75;;;;;;;2.46;100.00;98809.94;4957390;28;20536;-53
2021/12/08 04:17:48;;;;;;;;;;;;;;;2.51;100.00;98794.94;4954027;28;20043;-53
2021/12/08 04:20:37;;;;;;;3.35;2.47;;;;;;;2.52;100.00;98796.59;4952430;28;19926;-52
2021/12/08 04:23:12;;;;;;;3.97;2.40;;;;;;;2.55;100.00;98795.63;4955280;28;21510;-53
2021/12/08 04:25:40;;;;;;;5.22;2.78;;;;;;;2.55;100.00;98803.47;4955976;28;20520;-51
2021/12/08 04:28:33;;;;;;;7.03;2.85;;;;;;;2.53;100.00;98795.69;4954493;28;20057;-53
2021/12/08 04:31:11;;;;;;;5.80;2.70;;;;;;;2.59;100.00;98805.06;4960953;28;20416;-52
2021/12/08 04:33:39;;;;;;;5.97;2.55;;;;;;;2.65;100.00;98810.06;4940413;28;20058;-53
2021/12/08 04:36:13;;;;;;;4.10;2.40;;;;;;;2.65;100.00;98813.53;4956227;28;20133;-52
2021/12/08 04:38:52;;;;;;;4.30;2.40;;;;;;;2.64;100.00;98808.34;4956456;28;20047;-54
2021/12/08 04:41:40;;;;;;;3.42;2.65;;;;;;;2.55;100.00;98804.31;4937288;28;20048;-52
2021/12/08 05:07:15;;;;;;;6.50;3.80;;;;;;;2.71;100.00;98823.72;4931185;28;20093;-61
2021/12/08 05:09:48;;;;;;;7.68;4.10;;;;;;;2.72;100.00;98829.78;4938226;28;20047;-53
2021/12/08 05:12:23;;;;;;;6.97;3.70;;;;;;;2.65;100.00;98815.28;4941376;28;20055;-52
2021/12/08 05:15:09;;;;;;;11.25;4.50;;;;;;;2.61;100.00;98805.84;4940399;28;20057;-52
2021/12/08 05:17:41;;;;;;;8.10;4.93;;;;;;;2.60;100.00;98812.00;4936073;28;20682;-53
2021/12/08 05:20:16;;;;;;;9.63;5.03;;;;;;;2.52;100.00;98796.59;4942090;28;20055;-53
2021/12/08 05:22:55;;;;;;;7.88;4.65;;;;;;;2.62;100.00;98811.03;4940596;28;20062;-54
2021/12/08 05:25:27;;;;;;;10.95;4.47;;;;;;;2.65;100.00;98815.28;4942620;28;20065;-52
2021/12/08 05:27:59;;;;;;;7.70;4.35;;;;;;;2.67;100.00;98811.69;4940611;28;20055;-53
2021/12/08 05:30:31;;;;;;;7.72;4.15;;;;;;;2.72;100.00;98811.50;4942566;28;20039;-53
2021/12/08 05:33:04;;;;;;;7.50;4.55;;;;;;;2.71;100.00;98820.25;4950134;28;20078;-52
2021/12/08 05:35:31;;;;;;;9.80;4.90;;;;;;;2.70;100.00;98816.78;4945400;28;20047;-52
2021/12/08 05:37:58;;;;;;;9.65;4.40;;;;;;;2.66;100.00;98816.97;4944285;28;20131;-52
2021/12/08 05:40:56;;;;;;;9.60;5.15;;;;;;;2.68;100.00;98809.91;4960257;28;20516;-53
2021/12/08 05:43:26;;;;;;;11.02;5.20;;;;;;;2.72;100.00;98814.97;4949720;28;20054;-53
2021/12/08 05:45:58;;;;;;;;;;;;;;;2.74;100.00;98812.28;4962050;28;20986;-51
2021/12/08 05:48:32;;;;;;;7.32;5.10;;;;;;;2.76;100.00;98813.06;4960497;28;19932;-55
2021/12/08 05:51:13;;;;;;;7.55;5.00;;;;;;;2.72;100.00;98816.72;4964528;28;20050;-53
2021/12/08 05:53:45;;;;;;;7.38;4.80;;;;;;;2.73;100.00;98815.81;4960651;28;20666;-52
2021/12/08 05:56:12;;;;;;;10.95;4.95;;;;;;;2.69;100.00;98806.38;4958378;28;20057;-53
2021/12/08 05:58:44;;;;;;;8.70;5.60;;;;;;;2.71;100.00;98804.56;4957745;28;20055;-52
2021/12/08 06:01:47;;;;;;;8.40;5.57;;;;;;;2.73;100.00;98800.13;4958589;28;20055;-52
2021/12/08 06:04:19;;;;;;;9.85;5.15;;;;;;;2.74;100.00;98807.06;4959046;28;20475;-51
2021/12/08 06:07:05;;;;;;;9.95;5.30;;;;;;;2.68;100.00;98791.63;4961011;28;20571;-54
2021/12/08 06:09:41;;;;;;;11.27;5.40;;;;;;;2.77;100.00;98807.78;4960142;28;20103;-52
2021/12/08 06:12:25;;;;;;;10.68;5.65;;;;;;;2.77;100.00;98817.41;4964651;28;20534;-54
2021/12/08 06:15:07;;;;;;;10.68;5.78;;;;;;;2.80;100.00;98814.66;4956565;28;20043;-54
2021/12/08 06:17:52;;;;;;;11.38;5.95;;;;;;;2.85;100.00;98806.59;4958673;28;20051;-54
2021/12/08 06:20:30;;;;;;;11.93;6.10;;;;;;;2.85;100.00;98806.59;4947387;28;20068;-53
2021/12/08 06:23:01;;;;;;;12.10;6.47;;;;;;;2.76;100.00;98792.16;4958747;28;20424;-52
2021/12/08 06:25:28;;;;;;;11.52;6.18;;;;;;;2.80;100.00;98799.81;4959185;28;20057;-52
2021/12/08 06:27:55;;;;;;;14.35;7.13;;;;;;;2.77;100.00;98799.94;4956791;28;20047;-52
2021/12/08 06:30:27;;;;;;;10.77;6.30;;;;;;;2.81;100.00;98795.44;4967458;28;20059;-54
2021/12/08 06:32:54;;;;;;;11.45;6.28;;;;;;;2.78;100.00;98788.59;4942651;28;20047;-52
2021/12/08 06:35:40;;;;;;;9.35;5.95;;;;;;;2.85;100.00;98773.47;4956101;28;20433;-52
2021/12/08 06:38:18;;;;;;;10.80;6.30;;;;;;;2.87;100.00;98779.50;4954972;28;20454;-53
2021/12/08 06:41:06;;;;;;;13.23;6.30;;;;;;;2.88;100.00;98785.56;4957230;28;20043;-54
2021/12/08 06:43:57;;;;;;;9.75;6.35;;;;;;;2.89;100.00;98788.13;4958113;28;20578;-52
2021/12/08 06:46:29;;;;;;;10.82;5.80;;;;;;;2.93;100.00;98804.53;4954406;28;20440;-51
2021/12/08 06:49:20;;;;;;;15.35;6.78;;;;;;;2.97;100.00;98795.66;4957230;28;20038;-55
2021/12/08 06:51:57;;;;;;;9.27;5.82;;;;;;;2.98;100.00;98800.00;4958470;28;20050;-53
2021/12/08 06:54:30;;;;;;;13.30;6.05;;;;;;;2.93;100.00;98800.16;4956534;28;20076;-52
2021/12/08 06:57:06;;;;;;;8.85;6.00;;;;;;;2.93;100.00;98815.84;4957836;28;20053;-53
2021/12/08 06:59:50;;;;;;;10.73;5.85;;;;;;;2.86;100.00;98798.72;4954866;28;20508;-53
2021/12/08 07:02:37;;;;;;;10.82;5.95;;;;;;;2.84;100.00;98808.38;4958833;28;20039;-53
2021/12/08 07:07:43;;;;;;;12.05;6.30;;;;;;;2.90;100.00;98815.97;4953514;28;20053;-52
2021/12/08 07:10:20;;;;;;;10.20;5.68;;;;;;;2.90;100.00;98800.28;4956254;28;20503;-52
2021/12/08 07:13:05;;;;;;;12.23;6.30;;;;;;;2.91;100.00;98790.69;4954755;28;20515;-53
2021/12/08 07:15:40;;;;;;;11.63;6.28;;;;;;;2.94;100.00;98780.09;4955845;28;20505;-53
2021/12/08 07:18:37;;;;;;;7.70;5.30;;;;;;;2.93;100.00;98809.78;4951418;28;21131;-54
2021/12/08 07:21:13;;;;;;;10.20;5.95;;;;;;;2.91;100.00;98833.38;4959680;28;22119;-53
2021/12/08 07:23:47;;;;;;;8.57;5.70;;;;;;;2.94;100.00;98848.09;4962071;28;20510;-52
2021/12/08 07:26:23;;;;;;;10.07;5.95;;;;;;;2.87;100.00;98836.16;4956766;28;20057;-53
2021/12/08 07:29:02;;;;;;;9.18;6.18;;;;;;;2.95;100.00;98855.88;4951704;28;20045;-52
2021/12/08 07:31:56;;;;;;;12.15;6.20;;;;;;;2.95;100.00;98839.31;4958585;28;20046;-53
2021/12/08 07:34:26;;;;;;;9.95;5.90;;;;;;;2.95;100.00;98831.47;4959053;28;20034;-52
2021/12/08 07:37:00;;;;;;;16.13;7.30;;;;;;;2.96;100.00;98841.03;4955964;28;20064;-55
2021/12/08 07:39:44;;;;;;;10.65;6.32;;;;;;;2.97;100.00;98843.59;4958021;28;20061;-54
2021/12/08 07:42:37;;;;;;;9.02;6.15;;;;;;;2.94;100.00;98846.31;4937170;28;20058;-53
2021/12/08 07:45:11;;;;;;;12.52;6.57;;;;;;;2.93;100.00;98844.63;4939763;28;20504;-52
2021/12/08 07:47:41;;;;;;;10.85;6.25;;;;;;;2.99;100.00;98856.59;4929570;28;20055;-52
2021/12/08 07:50:18;;;;;;;11.55;5.88;;;;;;;2.99;100.00;98865.25;4934238;28;20062;-61
2021/12/08 07:53:12;;;;;;;12.55;6.45;;;;;;;2.99;100.00;98874.91;4937196;28;20043;-56
2021/12/08 07:56:04;;;;;;;10.98;6.10;;;;;;;3.00;100.00;98873.97;4938492;28;20398;-53
2021/12/08 07:58:37;;;;;;;9.20;6.32;;;;;;;3.01;100.00;98852.13;4921840;28;20055;-56
2021/12/08 08:01:09;;;;;;;10.63;6.05;;;;;;;3.10;100.00;98839.53;4937948;28;20047;-53
2021/12/08 08:03:39;;;;;;;11.52;6.78;;;;;;;3.14;100.00;98819.34;4938043;28;20062;-53
2021/12/08 08:06:24;;;;;;;15.75;7.57;;;;;;;3.12;100.00;98810.72;4936466;28;20069;-58
2021/12/08 08:08:54;;;;;;;8.63;5.68;;;;;;;3.16;100.00;98828.81;4934133;28;20054;-52
2021/12/08 08:11:32;;;;;;;11.38;6.57;;;;;;;3.14;100.00;98814.97;4919889;28;20134;-52
2021/12/08 08:14:12;;;;;;;11.80;6.55;;;;;;;3.02;100.00;98794.53;4939615;28;20043;-53
2021/12/08 08:16:57;;;;;;;13.20;7.25;;;;;;;3.20;100.00;98819.06;4931223;28;20552;-54
2021/12/08 08:19:35;;;;;;;12.85;6.68;;;;;;;3.21;100.00;98823.41;4938256;28;20081;-53
2021/12/08 08:22:09;;;;;;;13.57;7.47;;;;;;;3.24;100.00;98836.34;4939219;28;20855;-52
2021/12/08 08:24:37;;;;;;;16.75;7.43;;;;;;;3.35;100.00;98839.34;4913911;28;20136;-53
2021/12/08 08:27:08;;;;;;;12.48;7.40;;;;;;;3.35;100.00;98822.81;4940364;28;20047;-53
2021/12/08 08:29:35;;;;;;;13.70;7.40;;;;;;;3.34;100.00;98824.56;4940421;28;20058;-53
2021/12/08 08:32:19;;;;;;;12.38;6.90;;;;;;;3.35;100.00;98828.03;4936635;28;20051;-53
2021/12/08 08:34:55;;;;;;;13.73;7.10;;;;;;;3.41;100.00;98833.03;4933377;28;20035;-52
2021/12/08 08:37:27;;;;;;;15.00;6.90;;;;;;;3.44;100.00;98822.44;4938035;28;20055;-52
2021/12/08 08:40:09;;;;;;;10.93;6.68;;;;;;;3.39;100.00;98795.59;4942876;28;20054;-53
2021/12/08 08:42:43;;;;;;;8.75;6.85;;;;;;;3.53;100.00;98815.03;4964036;28;20077;-54
2021/12/08 08:45:30;;;;;;;10.63;6.07;;;;;;;3.58;100.00;98822.69;4960702;28;20111;-52
2021/12/08 08:48:01;;;;;;;10.43;6.57;;;;;;;3.60;100.00;98844.41;4952923;28;20047;-53
2021/12/08 08:50:42;;;;;;;12.25;6.47;;;;;;;3.58;100.00;98854.09;4956568;28;20050;-51
2021/12/08 08:53:17;;;;;;;12.63;6.47;;;;;;;3.59;100.00;98855.78;4957628;28;20042;-52
2021/12/08 08:55:58;;;;;;;11.27;6.32;;;;;;;3.60;100.00;98860.09;4958301;28;20047;-52
2021/12/08 08:58:34;;;;;;;11.35;6.95;;;;;;;3.70;100.00;98863.16;4950010;28;20177;-53
2021/12/08 09:01:16;;;;;;;10.82;6.68;;;;;;;3.80;100.00;98872.31;4956176;28;20101;-53
2021/12/08 09:03:51;;;;;;;12.93;6.85;;;;;;;3.86;100.00;98870.28;4947536;28;20070;-52
2021/12/08 09:06:28;;;;;;;8.95;6.38;;;;;;;3.92;100.00;98865.72;4948953;28;20059;-54
2021/12/08 09:08:55;;;;;;;13.70;6.97;;;;;;;3.97;100.00;98859.31;4923885;28;20055;-53
2021/12/08 09:11:41;;;;;;;6.78;5.45;;;;;;;3.92;100.00;98840.38;4930039;28;20431;-54
2021/12/08 09:14:26;;;;;;;8.35;5.63;;;;;;;4.05;100.00;98856.38;4918755;28;20130;-55
2021/12/08 09:17:08;;;;;;;9.20;5.30;;;;;;;4.14;100.00;98855.94;4957527;28;20045;-54
2021/12/08 09:19:42;;;;;;;6.95;5.45;;;;;;;4.13;100.00;98857.72;4950664;28;20057;-53
2021/12/08 09:22:15;;;;;;;11.60;5.97;;;;;;;4.12;100.00;98863.88;4957744;28;20078;-53
2021/12/08 09:24:52;;;;;;;9.52;6.32;;;;;;;4.12;100.00;98874.34;4954289;28;20042;-53
2021/12/08 09:27:34;;;;;;;9.77;6.63;;;;;;;4.19;100.00;98869.69;4949864;28;20071;-53
2021/12/08 09:30:06;;;;;;;;;;;;;;;4.28;100.00;98874.50;4952450;28;20053;-51
2021/12/08 09:32:43;;;;;;;13.52;7.13;;;;;;;4.30;100.00;98877.06;4955324;28;53618;-52
2021/12/08 09:35:17;;;;;;;12.07;7.35;;;;;;;4.28;100.00;98863.19;4958222;28;20562;-54
2021/12/08 09:37:53;;;;;;;11.93;7.63;;;;;;;4.10;100.00;98857.00;4956680;28;20059;-52
2021/12/08 09:40:37;;;;;;;13.45;8.02;;;;;;;4.14;100.00;98874.28;4951319;28;20112;-52
2021/12/08 09:43:16;;;;;;;11.82;6.95;;;;;;;4.08;100.00;98866.72;4959107;28;20079;-51
2021/12/08 09:45:51;;;;;;;13.02;7.13;;;;;;;4.17;100.00;98872.38;4958110;28;20173;-53
2021/12/08 09:48:29;;;;;;;14.30;6.50;;;;;;;4.26;100.00;98872.88;4957184;28;20129;-54
2021/12/08 09:50:58;;;;;;;10.23;6.82;;;;;;;4.29;100.00;98886.69;4960061;28;20046;-54
2021/12/08 09:53:33;;;;;;;10.25;6.28;;;;;;;4.28;100.00;98894.63;4959508;28;20051;-53
2021/12/08 09:56:19;;;;;;;13.10;7.25;;;;;;;4.31;100.00;98891.88;4963672;28;20066;-52
2021/12/08 09:58:56;;;;;;;11.88;6.68;;;;;;;4.33;100.00;98906.59;4952975;28;20051;-53
2021/12/08 10:01:24;;;;;;;11.75;6.93;;;;;;;4.33;100.00;98906.59;4956810;28;20055;-52
2021/12/08 10:03:53;;;;;;;14.98;6.95;;;;;;;4.35;100.00;98904.78;4961586;28;20047;-52
2021/12/08 10:06:28;;;;;;;13.13;7.75;;;;;;;4.36;100.00;98906.47;4962238;28;20047;-53
2021/12/08 10:08:57;;;;;;;10.45;6.90;;;;;;;4.40;100.00;98915.06;4959290;28;20046;-53
2021/12/08 10:11:32;;;;;;;9.13;6.72;;;;;;;4.45;100.00;98908.66;4945261;28;20082;-52
2021/12/08 10:14:06;;;;;;;9.57;6.25;;;;;;;4.48;100.00;98911.16;4961833;28;20090;-53
2021/12/08 10:16:39;;;;;;;10.25;7.05;;;;;;;4.52;100.00;98914.50;4969346;28;20060;-52
2021/12/08 10:19:06;;;;;;;9.63;6.90;;;;;;;4.53;100.00;98919.66;4949588;28;20054;-52
2021/12/08 10:21:42;;;;;;;11.30;6.95;;;;;;;4.56;100.00;98921.31;4963688;28;20058;-51
2021/12/08 10:24:41;;;;;;;12.48;7.28;;;;;;;4.52;100.00;98915.34;4956218;28;20050;-52
2021/12/08 10:27:08;;;;;;;9.70;6.78;;;;;;;4.52;100.00;98920.59;4942694;28;20050;-54
2021/12/08 10:29:39;;;;;;;9.38;6.63;;;;;;;4.52;100.00;98910.09;4952182;28;20053;-52
2021/12/08 10:32:07;;;;;;;11.45;6.60;;;;;;;4.53;100.00;98901.31;4961731;28;20050;-55
2021/12/08 10:34:46;;;;;;;10.10;6.55;;;;;;;4.58;100.00;98906.31;4961402;28;20046;-53
2021/12/08 10:37:20;;;;;;;13.05;7.20;;;;;;;4.51;100.00;98871.69;4952029;28;20057;-53
2021/12/08 10:39:52;;;;;;;11.02;7.22;;;;;;;4.66;100.00;98874.53;4956658;28;20063;-53
2021/12/08 10:42:36;;;;;;;13.63;7.40;;;;;;;4.62;100.00;98859.84;4964401;28;20054;-53
2021/12/08 10:45:11;;;;;;;10.18;7.03;;;;;;;4.69;100.00;98875.22;4961303;28;20055;-53
2021/12/08 10:47:50;;;;;;;11.77;7.35;;;;;;;4.70;100.00;98870.84;4964452;28;20058;-53
2021/12/08 10:56:08;;;;;;;15.40;7.35;;;;;;;4.80;100.00;98866.84;4956161;28;20994;-52
2021/12/08 10:58:43;;;;;;;12.18;6.97;;;;;;;4.85;100.00;98870.09;4959156;28;20066;-53
2021/12/08 11:01:19;;;;;;;10.27;7.10;;;;;;;4.88;99.12;98864.69;4961261;28;20129;-54
2021/12/08 11:03:48;;;;;;;10.57;7.32;;;;;;;4.90;99.58;98873.34;4964126;28;20050;-52
2021/12/08 11:06:19;;;;;;;13.82;7.45;;;;;;;4.88;99.69;98867.31;4960537;28;20057;-54
2021/12/08 11:08:49;;;;;;;10.32;6.68;;;;;;;4.85;100.00;98865.72;4955746;28;20050;-53
2021/12/08 11:11:33;;;;;;;10.20;7.15;;;;;;;4.89;100.00;98864.63;4951689;28;20141;-52
2021/12/08 11:14:05;;;;;;;11.73;8.35;;;;;;;4.89;100.00;98856.75;4969108;28;20122;-54
2021/12/08 11:16:37;;;;;;;11.65;7.82;;;;;;;4.90;100.00;98855.81;4958869;28;20058;-53
2021/12/08 11:19:27;;;;;;;12.63;8.40;;;;;;;4.98;100.00;98854.63;4953406;28;20058;-51
2021/12/08 11:22:05;;;;;;;12.25;8.18;;;;;;;5.06;100.00;98852.44;4955406;28;20078;-54
2021/12/08 11:24:48;;;;;;;13.55;8.48;;;;;;;5.17;100.00;98848.41;4956377;28;20082;-54
2021/12/08 11:27:29;;;;;;;18.00;9.38;;;;;;;5.29;100.00;98850.41;4955090;28;20710;-53
2021/12/08 11:29:56;;;;;;;12.73;8.15;;;;;;;5.38;100.00;98845.59;4950486;28;20146;-55
2021/12/08 11:32:24;;;;;;;11.63;8.10;;;;;;;5.46;100.00;98840.84;4955062;28;20066;-52
2021/12/08 11:34:51;;;;;;;13.43;8.10;;;;;;;5.55;99.76;98840.34;4955103;28;20134;-53
2021/12/08 11:37:26;;;;;;;11.65;8.00;;;;;;;5.64;97.81;98837.28;4959439;28;20108;-51
2021/12/08 11:40:00;;;;;;;11.60;7.07;;;;;;;5.72;96.54;98845.59;4956146;28;20062;-53
2021/12/08 11:42:42;;;;;;;12.60;7.18;;;;;;;5.78;96.28;98839.19;4955188;28;20058;-52
2021/12/08 11:45:19;;;;;;;12.05;7.47;;;;;;;5.80;96.00;98846.06;4954876;28;20078;-54
2021/12/08 11:48:20;;;;;;;13.75;8.82;;;;;;;5.87;93.43;98847.41;4960139;28;20129;-50
2021/12/08 11:51:11;;;;;;;11.53;7.53;;;;;;;5.85;93.20;98865.03;4954190;28;20047;-53
2021/12/08 11:53:42;;;;;;;14.10;9.10;;;;;;;5.83;94.19;98843.25;4944281;28;20057;-52
2021/12/08 11:56:42;;;;;;;12.68;8.48;;;;;;;5.83;92.92;98840.63;4960696;28;20523;-53
2021/12/08 11:59:17;;;;;;;16.13;8.70;;;;;;;5.90;91.51;98836.78;4932251;28;20042;-53
2021/12/08 12:01:47;;;;;;;13.30;8.10;;;;;;;5.88;91.69;98827.25;4953382;28;20055;-52
2021/12/08 12:04:24;;;;;;;12.25;8.07;;;;;;;5.86;92.01;98835.22;4951081;28;20137;-52
2021/12/08 12:06:56;;;;;;;12.80;7.68;;;;;;;5.87;90.76;98842.16;4955861;28;20057;-52
2021/12/08 12:09:23;;;;;;;13.95;8.23;;;;;;;5.83;91.36;98840.63;4956910;28;20042;-54
2021/12/08 12:11:58;;;;;;;12.48;8.15;;;;;;;5.80;92.00;98837.31;4954215;28;20054;-53
2021/12/08 12:14:31;;;;;;;;;;;;;;;5.85;92.40;98843.16;4963238;28;20051;-54
2021/12/08 12:16:57;;;;;;;12.38;7.93;;;;;;;5.88;92.07;98840.38;4955518;28;19937;-53
2021/12/08 12:19:42;;;;;;;13.07;8.45;;;;;;;5.88;91.97;98835.13;4951351;28;20043;-52
2021/12/08 12:22:34;;;;;;;14.02;7.68;;;;;;;6.01;90.33;98837.97;4947174;28;20055;-52
2021/12/08 12:25:20;;;;;;;13.40;7.77;;;;;;;6.02;90.41;98837.91;4954730;28;20038;-53
2021/12/08 12:28:02;;;;;;;14.40;8.63;;;;;;;6.03;90.79;98842.22;4952603;28;20043;-54
2021/12/08 12:31:06;;;;;;;12.10;7.88;;;;;;;6.04;91.43;98835.19;4949145;28;20054;-54
2021/12/08 12:33:42;;;;;;;16.25;8.25;;;;;;;6.06;90.65;98835.97;4909155;29;20063;-52
2021/12/08 12:36:28;;;;;;;13.57;8.32;;;;;;;6.09;89.87;98830.56;4949569;28;20687;-55
2021/12/08 12:39:27;;;;;;;12.10;7.80;;;;;;;6.06;90.05;98828.94;4941525;28;20110;-54
2021/12/08 12:41:58;;;;;;;16.58;9.27;;;;;;;6.02;90.15;98837.91;4951734;28;20057;-52
2021/12/08 12:44:34;;;;;;;13.85;9.00;;;;;;;6.01;91.26;98832.72;4951999;28;20277;-53
2021/12/08 12:47:13;;;;;;;13.27;8.00;;;;;;;6.04;90.97;98843.06;4961723;28;20046;-51
2021/12/08 12:50:14;;;;;;;14.55;8.88;;;;;;;6.06;91.20;98838.59;4951865;28;20051;-51
2021/12/08 12:53:28;;;;;;;13.32;8.10;;;;;;;6.08;91.11;98844.63;4957124;28;20054;-50
2021/12/08 12:55:59;;;;;;;13.23;9.02;;;;;;;6.08;90.83;98837.59;4954949;28;20596;-54
2021/12/08 12:58:52;;;;;;;10.95;8.23;;;;;;;6.12;91.46;98840.91;4954415;28;20690;-52
2021/12/08 13:01:37;;;;;;;12.50;8.95;;;;;;;6.09;91.13;98835.81;4949482;28;20371;-53
2021/12/08 13:04:16;;;;;;;13.70;9.65;;;;;;;6.08;91.06;98840.22;4952385;28;20432;-51
2021/12/08 13:07:04;;;;;;;14.70;9.52;;;;;;;6.09;91.69;98830.56;4950337;28;20067;-52
2021/12/08 13:10:12;;;;;;;16.65;10.35;;;;;;;6.07;91.69;98828.00;4936178;28;20128;-51